Time;durP1;ratioP1;P1;durP2;ratioP2;P2;SDS_P1;SDS_P2;PMS_P1;PMS_P2;Temp;Humidity;BMP_temperature;BMP_pressure;BME280_temperature;BME280_humidity;BME280_pressure;Samples;Min_cycle;Max_cycle;Signal;HPM_P1;HPM_P2
2022/05/30 00:00:25;;;;;;;6.43;1.45;;;;;;;9.48;70.53;101276.78;5049052;28;20024;-75
2022/05/30 00:02:51;;;;;;;4.65;1.42;;;;;;;9.45;70.67;101275.97;5051593;28;20025;-75
2022/05/30 00:05:17;;;;;;;3.40;1.30;;;;;;;9.41;71.17;101276.00;5048746;28;20036;-75
2022/05/30 00:07:42;;;;;;;4.38;1.45;;;;;;;9.41;71.94;101275.13;5048560;28;20048;-75
2022/05/30 00:10:10;;;;;;;5.40;1.40;;;;;;;9.39;71.43;101266.53;5049181;28;20052;-75
2022/05/30 00:12:36;;;;;;;4.22;1.52;;;;;;;9.37;72.79;101268.28;5048792;28;20051;-75
2022/05/30 00:15:02;;;;;;;5.53;1.30;;;;;;;9.36;71.47;101266.56;5047117;28;20389;-75
2022/05/30 00:17:28;;;;;;;5.65;2.22;;;;;;;9.35;72.21;101263.09;5049379;28;20031;-75
2022/05/30 00:19:53;;;;;;;3.38;1.90;;;;;;;9.33;72.51;101257.06;5047325;28;20025;-75
2022/05/30 00:22:18;;;;;;;7.60;1.50;;;;;;;9.32;72.65;101257.09;5046856;28;20383;-75
2022/05/30 00:24:44;;;;;;;3.88;1.70;;;;;;;9.32;72.69;101254.50;5046556;28;20059;-75
2022/05/30 00:27:11;;;;;;;5.72;1.75;;;;;;;9.32;72.24;101254.50;5049631;28;20491;-75
2022/05/30 00:29:37;;;;;;;6.18;1.70;;;;;;;9.27;72.31;101252.81;5048943;28;20057;-75
2022/05/30 00:32:03;;;;;;;5.10;1.42;;;;;;;9.21;71.40;101252.94;5048643;28;20025;-75
2022/05/30 00:34:29;;;;;;;4.75;1.70;;;;;;;9.18;71.58;101247.78;5050324;28;20451;-75
2022/05/30 00:36:54;;;;;;;3.30;1.30;;;;;;;9.16;72.10;101243.47;5047919;28;20491;-75
2022/05/30 00:39:20;;;;;;;5.00;1.67;;;;;;;9.12;72.30;101253.03;5043943;28;20021;-75
2022/05/30 00:41:45;;;;;;;5.28;1.50;;;;;;;9.10;72.65;101254.78;5045655;28;20086;-75
2022/05/30 00:44:11;;;;;;;4.28;1.30;;;;;;;9.06;72.18;101253.97;5049033;28;20016;-75
2022/05/30 00:46:36;;;;;;;7.75;1.95;;;;;;;9.05;72.10;101257.44;5045017;28;20033;-75
2022/05/30 00:49:06;;;;;;;6.70;1.75;;;;;;;9.06;72.48;101258.28;5045158;28;20033;-75
2022/05/30 00:51:41;;;;;;;2.38;1.25;;;;;;;9.07;72.33;101254.81;5044575;28;20100;-75
2022/05/30 00:54:12;;;;;;;5.63;1.80;;;;;;;9.05;72.77;101254.00;5047563;28;20033;-75
2022/05/30 00:56:42;;;;;;;4.10;1.30;;;;;;;9.01;72.95;101255.75;5046224;28;20044;-75
2022/05/30 00:59:08;;;;;;;7.65;1.88;;;;;;;9.00;72.74;101250.59;5047254;28;20427;-75
2022/05/30 01:01:35;;;;;;;4.60;1.63;;;;;;;9.02;72.48;101257.47;5049652;28;20081;-75
2022/05/30 01:06:50;;;;;;;4.53;2.10;;;;;;;9.01;72.33;101250.56;5045931;28;20035;-75
2022/05/30 01:09:26;;;;;;;7.00;2.20;;;;;;;9.01;72.04;101252.31;5048386;28;20029;-75
2022/05/30 01:12:07;;;;;;;7.28;2.28;;;;;;;8.99;72.19;101248.88;5045516;28;20479;-75
2022/05/30 01:14:35;;;;;;;5.63;1.65;;;;;;;8.97;72.83;101243.69;5042988;28;20040;-75
2022/05/30 01:17:05;;;;;;;6.00;1.95;;;;;;;8.98;72.91;101247.16;5046643;28;20021;-75
2022/05/30 01:19:52;;;;;;;6.28;1.60;;;;;;;8.98;72.22;101241.97;5044550;28;20028;-75
2022/05/30 01:22:40;;;;;;;5.40;1.88;;;;;;;8.96;72.78;101248.03;5046968;28;20051;-75
2022/05/30 01:25:34;;;;;;;6.35;1.77;;;;;;;8.96;73.45;101249.78;5049191;28;20120;-75
2022/05/30 01:28:11;;;;;;;6.70;1.85;;;;;;;8.94;72.90;101244.59;5046813;28;20131;-75
2022/05/30 01:30:39;;;;;;;5.10;1.90;;;;;;;8.94;73.35;101249.78;5048684;28;20029;-75
2022/05/30 01:33:05;;;;;;;5.07;1.65;;;;;;;8.92;73.76;101241.16;5047238;28;20021;-75
2022/05/30 01:35:30;;;;;;;4.25;2.00;;;;;;;8.91;73.98;101244.63;5045928;28;20386;-75
2022/05/30 01:37:57;;;;;;;5.35;1.92;;;;;;;8.91;73.84;101236.84;5045641;28;20133;-75
2022/05/30 01:40:24;;;;;;;4.57;2.00;;;;;;;8.90;73.88;101237.72;5049696;28;20025;-75
2022/05/30 01:42:49;;;;;;;6.03;2.20;;;;;;;8.85;73.96;101236.94;5049052;28;20021;-75
2022/05/30 01:45:14;;;;;;;6.45;2.10;;;;;;;8.80;73.99;101239.56;5043147;28;20025;-75
2022/05/30 01:47:40;;;;;;;6.43;2.58;;;;;;;8.80;74.04;101236.13;5049285;28;20040;-75
2022/05/30 01:50:06;;;;;;;5.28;2.60;;;;;;;8.76;74.45;101229.25;5046531;28;20100;-75
2022/05/30 01:52:31;;;;;;;6.03;2.50;;;;;;;8.73;74.55;101230.16;5048725;28;20032;-75
2022/05/30 01:54:57;;;;;;;5.55;1.92;;;;;;;8.70;74.48;101229.34;5046501;28;20102;-75
2022/05/30 01:57:23;;;;;;;4.03;2.15;;;;;;;8.66;74.67;101233.69;5049245;28;20044;-75
2022/05/30 01:59:48;;;;;;;4.65;2.45;;;;;;;8.63;74.61;101228.53;5046486;28;20534;-75
2022/05/30 02:02:14;;;;;;;5.90;2.58;;;;;;;8.61;74.45;101236.34;5046920;28;20029;-75
2022/05/30 02:04:39;;;;;;;7.13;2.80;;;;;;;8.55;74.93;101236.41;5044430;28;20029;-75
2022/05/30 02:07:05;;;;;;;6.78;2.45;;;;;;;8.53;75.17;101230.41;5050383;28;20044;-75
2022/05/30 02:09:31;;;;;;;5.15;2.25;;;;;;;8.48;75.39;101230.44;5045797;28;20025;-75
2022/05/30 02:11:56;;;;;;;4.80;2.58;;;;;;;8.47;75.32;101225.25;5048243;28;20066;-75
2022/05/30 02:14:22;;;;;;;6.40;2.75;;;;;;;8.43;75.19;101229.59;5046972;28;20435;-75
2022/05/30 02:17:04;;;;;;;5.28;2.42;;;;;;;8.42;75.47;101227.00;5049171;28;20103;-75
2022/05/30 02:19:32;;;;;;;7.07;2.50;;;;;;;8.41;75.37;101227.88;5044937;28;20104;-75
2022/05/30 02:21:57;;;;;;;5.35;2.47;;;;;;;8.40;75.66;101226.16;5045333;28;20143;-75
2022/05/30 02:24:23;;;;;;;6.32;2.42;;;;;;;8.39;75.62;101224.44;5042694;28;20049;-75
2022/05/30 02:26:48;;;;;;;6.30;2.60;;;;;;;8.40;75.55;101226.16;5044288;28;20025;-75
2022/05/30 02:29:13;;;;;;;6.55;2.70;;;;;;;8.41;75.42;101227.88;5046482;28;20523;-75
2022/05/30 02:31:39;;;;;;;5.78;2.70;;;;;;;8.41;75.41;101225.28;5046607;28;20033;-75
2022/05/30 02:36:50;;;;;;;7.07;2.90;;;;;;;8.36;75.31;101225.34;5045862;28;20110;-74
2022/05/30 02:39:23;;;;;;;6.03;2.53;;;;;;;8.32;75.18;101227.13;5045861;28;20115;-75
2022/05/30 02:41:50;;;;;;;7.10;2.78;;;;;;;8.30;75.04;101221.09;5044168;28;20103;-75
2022/05/30 02:44:20;;;;;;;8.52;2.70;;;;;;;8.28;75.35;101225.44;5046858;28;20502;-75
2022/05/30 02:46:46;;;;;;;7.20;2.55;;;;;;;8.27;75.38;101225.47;5048326;28;20488;-75
2022/05/30 02:49:12;;;;;;;4.72;2.45;;;;;;;8.25;75.46;101219.44;5049987;28;20024;-75
2022/05/30 02:51:37;;;;;;;5.03;2.60;;;;;;;8.24;75.74;101223.72;5049603;28;20020;-75
2022/05/30 02:54:03;;;;;;;5.75;2.78;;;;;;;8.25;75.83;101220.28;5044431;28;20159;-75
2022/05/30 02:56:28;;;;;;;5.03;2.45;;;;;;;8.27;75.42;101212.50;5050041;28;20024;-75
2022/05/30 02:58:57;;;;;;;5.93;3.03;;;;;;;8.26;75.12;101216.81;5046904;28;20460;-75
2022/05/30 03:01:22;;;;;;;5.93;2.85;;;;;;;8.24;75.43;101218.53;5047632;28;20052;-75
2022/05/30 03:03:48;;;;;;;4.70;2.60;;;;;;;8.23;75.51;101215.97;5044920;28;21727;-75
2022/05/30 03:06:13;;;;;;;5.65;2.80;;;;;;;8.18;75.79;101222.06;5048632;28;20032;-75
2022/05/30 03:08:38;;;;;;;6.55;2.95;;;;;;;8.16;75.89;101228.16;5048760;28;20044;-75
2022/05/30 03:11:04;;;;;;;6.78;2.55;;;;;;;8.15;75.95;101227.28;5046102;28;20082;-75
2022/05/30 03:13:29;;;;;;;7.22;2.88;;;;;;;8.12;76.26;101223.84;5046072;28;20369;-75
2022/05/30 03:15:55;;;;;;;4.97;2.80;;;;;;;8.13;76.48;101225.56;5047831;28;20391;-75
2022/05/30 03:18:20;;;;;;;6.80;3.00;;;;;;;8.12;75.78;101227.28;5044294;28;20024;-75
2022/05/30 03:20:45;;;;;;;5.53;2.97;;;;;;;8.12;76.50;101218.69;5045197;28;20052;-75
2022/05/30 03:23:11;;;;;;;4.82;2.58;;;;;;;8.12;76.78;101229.03;5044522;28;20464;-75
2022/05/30 03:25:37;;;;;;;10.65;2.85;;;;;;;8.12;76.55;101227.28;5048217;28;20055;-75
2022/05/30 03:28:03;;;;;;;5.45;2.88;;;;;;;8.14;76.79;101227.31;5046364;28;20041;-74
2022/05/30 03:30:28;;;;;;;5.82;2.92;;;;;;;8.15;76.82;101231.59;5049348;28;20063;-75
2022/05/30 03:32:54;;;;;;;8.15;3.00;;;;;;;8.16;76.33;101222.97;5047573;28;20031;-75
2022/05/30 03:35:19;;;;;;;5.05;2.80;;;;;;;8.13;76.32;101228.16;5048200;28;20032;-75
2022/05/30 03:37:45;;;;;;;5.90;2.60;;;;;;;8.08;76.63;101229.94;5047372;28;20494;-75
2022/05/30 03:40:13;;;;;;;5.45;2.80;;;;;;;8.05;76.94;101226.50;5047178;28;20017;-75
2022/05/30 03:42:39;;;;;;;5.85;2.92;;;;;;;8.07;76.85;101233.41;5045869;28;20025;-75
2022/05/30 03:45:06;;;;;;;7.22;2.67;;;;;;;8.05;77.15;101234.28;5048183;28;20029;-75
2022/05/30 03:47:37;;;;;;;5.93;3.03;;;;;;;8.07;76.92;101242.03;5046111;28;20092;-75
2022/05/30 03:50:03;;;;;;;6.43;2.80;;;;;;;8.07;77.11;101238.56;5045145;28;20055;-75
2022/05/30 03:52:28;;;;;;;5.07;2.85;;;;;;;8.05;77.14;101236.84;5048049;28;20037;-75
2022/05/30 03:54:53;;;;;;;4.93;2.80;;;;;;;8.02;77.33;101244.69;5047164;28;20025;-75
2022/05/30 03:57:19;;;;;;;4.88;2.60;;;;;;;8.03;77.58;101238.59;5049405;28;20454;-75
2022/05/30 03:59:44;;;;;;;5.28;2.92;;;;;;;8.08;77.83;101237.72;5048905;28;20032;-75
2022/05/30 04:02:10;;;;;;;6.13;3.28;;;;;;;8.11;78.13;101240.28;5044186;28;20059;-75
2022/05/30 04:04:35;;;;;;;6.28;2.85;;;;;;;8.14;77.82;101241.09;5049337;28;20517;-75
2022/05/30 04:07:01;;;;;;;5.45;3.00;;;;;;;8.18;78.12;101234.19;5048384;28;20479;-75
2022/05/30 04:09:26;;;;;;;7.05;3.25;;;;;;;8.24;77.68;101236.69;5050550;28;20239;-75
2022/05/30 04:11:51;;;;;;;6.47;3.38;;;;;;;8.27;77.92;101226.31;5049584;28;20036;-75
2022/05/30 04:14:17;;;;;;;7.90;3.35;;;;;;;8.31;77.83;101232.31;5046687;28;20032;-75
2022/05/30 04:16:42;;;;;;;6.80;3.25;;;;;;;8.32;77.84;101223.66;5048500;28;20583;-75
2022/05/30 04:19:07;;;;;;;7.00;3.22;;;;;;;8.32;77.80;101223.66;5045939;28;20035;-75
2022/05/30 04:21:34;;;;;;;8.80;3.78;;;;;;;8.32;77.71;101229.72;5046282;28;20044;-75
2022/05/30 04:23:59;;;;;;;6.72;3.20;;;;;;;8.35;78.01;101229.69;5046994;28;20484;-75
2022/05/30 04:26:25;;;;;;;5.88;2.95;;;;;;;8.40;78.00;101231.34;5047796;28;20036;-75
2022/05/30 04:28:50;;;;;;;7.50;3.60;;;;;;;8.41;77.32;101228.75;5046206;28;20024;-75
2022/05/30 04:31:15;;;;;;;5.05;3.28;;;;;;;8.43;77.38;101231.31;5046755;28;20044;-75
2022/05/30 04:33:41;;;;;;;7.97;3.40;;;;;;;8.43;77.63;101231.31;5051022;28;20411;-75
2022/05/30 04:36:07;;;;;;;7.40;3.35;;;;;;;8.43;77.39;101231.31;5044391;28;20035;-75
2022/05/30 04:38:33;;;;;;;7.55;3.30;;;;;;;8.45;77.49;101232.16;5047523;28;20029;-75
2022/05/30 04:40:59;;;;;;;7.00;3.20;;;;;;;8.46;77.36;101232.13;5046302;28;20048;-75
2022/05/30 04:43:24;;;;;;;8.95;3.70;;;;;;;8.49;77.47;101226.97;5044743;28;20108;-75
2022/05/30 04:46:12;;;;;;;6.40;3.10;;;;;;;8.57;77.10;101234.66;5046256;28;20037;-75
2022/05/30 04:48:38;;;;;;;7.00;3.17;;;;;;;8.59;77.29;101237.25;5047447;28;20165;-75
2022/05/30 04:51:04;;;;;;;7.50;3.33;;;;;;;8.62;77.24;101230.28;5047962;28;20067;-75
2022/05/30 04:53:29;;;;;;;8.55;3.45;;;;;;;8.68;76.91;101236.28;5042901;28;20112;-75
2022/05/30 04:55:54;;;;;;;7.22;3.20;;;;;;;8.71;76.53;101239.69;5047150;28;20170;-75
2022/05/30 04:58:20;;;;;;;7.65;3.03;;;;;;;8.75;76.20;101238.78;5045650;28;20025;-75
2022/05/30 05:00:45;;;;;;;6.18;3.08;;;;;;;8.79;76.04;101244.78;5045925;28;20432;-75
2022/05/30 05:03:11;;;;;;;6.70;2.97;;;;;;;8.83;75.82;101241.28;5045030;28;20036;-75
2022/05/30 05:05:36;;;;;;;7.20;3.10;;;;;;;8.86;75.24;101255.94;5046826;28;20079;-75
2022/05/30 05:08:26;;;;;;;10.30;2.83;;;;;;;8.88;75.03;101260.25;5047049;28;20614;-75
2022/05/30 05:11:14;;;;;;;6.25;2.90;;;;;;;8.94;74.80;101254.97;5050055;28;20037;-75
2022/05/30 05:13:39;;;;;;;6.18;2.42;;;;;;;8.96;74.68;101257.56;5044519;28;20029;-75
2022/05/30 05:16:06;;;;;;;5.93;2.53;;;;;;;9.00;74.67;101261.00;5044610;28;20031;-75
2022/05/30 05:18:31;;;;;;;7.13;2.85;;;;;;;9.01;74.91;101260.09;5042680;28;20044;-75
2022/05/30 05:20:57;;;;;;;5.82;2.60;;;;;;;9.05;75.29;101261.78;5044725;28;20400;-75
2022/05/30 05:23:22;;;;;;;7.28;2.83;;;;;;;9.08;75.32;101253.94;5044830;28;20476;-75
2022/05/30 05:25:47;;;;;;;6.45;2.50;;;;;;;9.08;74.67;101257.41;5048159;28;20040;-75
2022/05/30 05:28:13;;;;;;;6.18;2.70;;;;;;;9.08;74.17;101261.72;5044177;28;20089;-75
2022/05/30 05:30:42;;;;;;;6.18;2.47;;;;;;;9.05;74.31;101261.78;5043585;28;20487;-75
2022/05/30 05:33:08;;;;;;;8.77;2.60;;;;;;;9.07;74.70;101260.00;5045559;28;20183;-75
2022/05/30 05:35:33;;;;;;;5.13;2.40;;;;;;;9.10;73.39;101257.38;5061631;28;20488;-75
2022/05/30 05:38:00;;;;;;;6.60;2.53;;;;;;;9.12;73.42;101258.22;5042744;28;20029;-75
2022/05/30 05:40:27;;;;;;;8.93;2.50;;;;;;;9.15;73.55;101265.09;5045473;28;20054;-75
2022/05/30 05:42:52;;;;;;;6.22;2.42;;;;;;;9.18;73.68;101262.47;5041776;28;20429;-75
2022/05/30 05:45:18;;;;;;;7.63;2.70;;;;;;;9.21;73.32;101263.31;5047823;28;20040;-75
2022/05/30 05:47:43;;;;;;;5.40;2.80;;;;;;;9.25;72.36;101264.97;5043503;28;20063;-75
2022/05/30 05:50:10;;;;;;;10.95;3.20;;;;;;;9.30;71.80;101267.53;5048045;28;20029;-75
2022/05/30 05:52:36;;;;;;;5.88;2.20;;;;;;;9.34;71.34;101270.94;5045019;28;20025;-75
2022/05/30 05:55:01;;;;;;;6.47;2.53;;;;;;;9.38;71.14;101273.47;5048620;28;20498;-75
2022/05/30 05:57:26;;;;;;;3.03;2.00;;;;;;;9.40;70.24;101274.28;5045152;28;20031;-75
2022/05/30 05:59:52;;;;;;;6.15;2.30;;;;;;;9.43;70.76;101281.19;5044341;28;20067;-75
2022/05/30 06:02:18;;;;;;;6.70;2.30;;;;;;;9.42;70.20;101279.44;5043459;28;20490;-75
2022/05/30 06:04:44;;;;;;;6.05;2.40;;;;;;;9.42;70.44;101279.44;5045893;28;20029;-75
2022/05/30 06:07:10;;;;;;;7.45;2.40;;;;;;;9.43;70.21;101278.56;5045471;28;20025;-75
2022/05/30 06:09:35;;;;;;;3.95;2.20;;;;;;;9.46;71.28;101286.34;5041274;28;20040;-75
2022/05/30 06:12:00;;;;;;;4.38;2.10;;;;;;;9.49;70.48;101285.41;5049477;28;20539;-75
2022/05/30 06:14:26;;;;;;;7.45;2.55;;;;;;;9.51;69.77;101283.66;5049892;28;20029;-75
2022/05/30 06:16:52;;;;;;;7.53;2.30;;;;;;;9.54;71.74;101281.91;5051469;28;20028;-75
2022/05/30 06:19:17;;;;;;;4.40;2.00;;;;;;;9.57;70.66;101281.84;5052924;28;20114;-75
2022/05/30 06:21:43;;;;;;;5.50;2.10;;;;;;;9.64;69.95;101282.63;5055678;28;20059;-75
2022/05/30 06:24:10;;;;;;;4.47;1.98;;;;;;;9.70;70.79;101282.53;5051777;28;20492;-75
2022/05/30 06:26:35;;;;;;;4.28;1.60;;;;;;;9.75;67.33;101286.78;5049222;28;20068;-75
2022/05/30 06:29:01;;;;;;;4.75;1.30;;;;;;;9.75;66.52;101284.19;5050444;28;20048;-75
2022/05/30 06:31:30;;;;;;;4.28;1.40;;;;;;;9.73;66.43;101286.84;5049622;28;20082;-75
2022/05/30 06:33:58;;;;;;;3.33;1.50;;;;;;;9.74;66.78;101288.50;5051346;28;20104;-75
2022/05/30 06:36:24;;;;;;;4.97;1.60;;;;;;;9.77;65.84;101288.47;5053237;28;20048;-75
2022/05/30 06:38:51;;;;;;;3.30;1.48;;;;;;;9.81;66.16;101294.50;5051574;28;20430;-75
2022/05/30 06:41:19;;;;;;;3.25;1.00;;;;;;;9.78;64.34;101292.78;5057927;28;20024;-75
2022/05/30 06:43:45;;;;;;;4.47;1.02;;;;;;;9.79;63.72;101291.91;5054687;28;20036;-75
2022/05/30 06:46:13;;;;;;;3.97;1.10;;;;;;;9.86;64.79;101293.56;5046651;28;20025;-75
2022/05/30 06:48:38;;;;;;;3.67;1.08;;;;;;;9.93;63.94;101293.44;5052385;28;20025;-75
2022/05/30 06:51:12;;;;;;;3.63;1.27;;;;;;;9.97;65.17;101285.59;5047887;28;20028;-75
2022/05/30 06:53:40;;;;;;;6.68;1.35;;;;;;;9.98;62.95;101281.22;5053744;28;20074;-75
2022/05/30 06:56:15;;;;;;;2.83;1.13;;;;;;;10.05;64.92;101293.25;5051222;28;20100;-75
2022/05/30 06:58:42;;;;;;;3.45;1.20;;;;;;;10.12;64.50;101289.66;5054402;28;20032;-75
2022/05/30 07:01:09;;;;;;;4.07;1.05;;;;;;;10.15;64.87;101296.56;5049383;28;20047;-76
2022/05/30 07:03:35;;;;;;;3.60;1.10;;;;;;;10.17;62.59;101293.06;5054084;28;20056;-75
2022/05/30 07:06:05;;;;;;;4.18;1.30;;;;;;;10.19;63.12;101300.81;5052674;28;20410;-75
2022/05/30 07:08:30;;;;;;;2.50;1.30;;;;;;;10.18;63.10;101299.97;5053074;28;20025;-75
2022/05/30 07:10:55;;;;;;;4.35;1.30;;;;;;;10.17;62.14;101298.25;5052960;28;20029;-75
2022/05/30 07:13:21;;;;;;;5.65;1.35;;;;;;;10.21;62.33;101300.81;5053637;28;20017;-75
2022/05/30 07:15:48;;;;;;;4.55;1.35;;;;;;;10.22;62.27;101294.72;5053717;28;20021;-75
2022/05/30 07:18:16;;;;;;;4.20;1.10;;;;;;;10.23;61.90;101299.03;5052246;28;20021;-75
2022/05/30 07:20:41;;;;;;;2.90;1.05;;;;;;;10.22;60.98;101294.72;5051996;28;20035;-75
2022/05/30 07:23:07;;;;;;;4.72;1.30;;;;;;;10.21;61.03;101303.41;5054140;28;20446;-75
2022/05/30 07:25:37;;;;;;;5.13;1.40;;;;;;;10.22;62.88;101299.91;5051735;28;20053;-75
2022/05/30 07:28:03;;;;;;;3.75;1.08;;;;;;;10.24;61.08;101303.34;5052736;28;20020;-75
2022/05/30 07:30:29;;;;;;;5.07;1.10;;;;;;;10.25;61.16;101299.84;5051877;28;20472;-75
2022/05/30 07:32:56;;;;;;;3.95;1.13;;;;;;;10.30;62.65;101300.63;5053594;28;20025;-75
2022/05/30 07:35:21;;;;;;;3.72;1.20;;;;;;;10.34;63.06;101307.50;5052461;28;20028;-76
2022/05/30 07:37:46;;;;;;;3.22;1.15;;;;;;;10.39;60.73;101308.31;5053548;28;20025;-75
2022/05/30 07:40:12;;;;;;;2.10;0.88;;;;;;;10.50;59.99;101307.25;5053615;28;20492;-75
2022/05/30 07:42:38;;;;;;;3.08;0.80;;;;;;;10.60;57.90;101303.59;5053771;28;20066;-75
2022/05/30 07:45:03;;;;;;;2.35;0.90;;;;;;;10.66;58.62;101305.25;5051374;28;20028;-75
2022/05/30 07:47:29;;;;;;;4.45;0.90;;;;;;;10.74;57.16;101309.44;5050251;28;20029;-75
2022/05/30 07:49:54;;;;;;;2.10;0.90;;;;;;;10.83;57.60;101297.09;5053071;28;20029;-75
2022/05/30 07:52:19;;;;;;;3.70;1.15;;;;;;;10.88;57.66;101295.28;5053428;28;20024;-75
2022/05/30 07:54:45;;;;;;;3.97;0.98;;;;;;;10.91;60.57;101290.03;5053263;28;20504;-75
2022/05/30 07:57:10;;;;;;;2.35;0.85;;;;;;;10.90;58.79;101288.31;5052384;28;20728;-75
2022/05/30 07:59:36;;;;;;;3.30;0.90;;;;;;;10.87;58.19;101288.34;5053374;28;20417;-75
2022/05/30 08:02:03;;;;;;;3.15;0.80;;;;;;;10.85;58.23;101284.94;5052872;28;20031;-75
2022/05/30 08:04:28;;;;;;;2.88;0.70;;;;;;;10.84;57.29;101284.09;5053072;28;20433;-75
2022/05/30 08:06:54;;;;;;;2.58;0.70;;;;;;;10.88;59.61;101290.06;5049810;28;20033;-76
2022/05/30 08:09:19;;;;;;;2.55;1.13;;;;;;;10.90;58.62;101291.75;5051704;28;20116;-76
2022/05/30 08:11:44;;;;;;;2.83;1.10;;;;;;;10.94;58.29;101292.53;5051984;28;20094;-75
2022/05/30 08:14:10;;;;;;;3.78;1.10;;;;;;;10.96;55.55;101293.38;5052320;28;20013;-75
2022/05/30 08:16:37;;;;;;;3.63;1.10;;;;;;;10.99;57.17;101288.09;5052394;28;20102;-75
2022/05/30 08:19:04;;;;;;;4.32;1.20;;;;;;;11.04;57.11;101282.78;5051149;28;20045;-75
2022/05/30 08:21:29;;;;;;;4.75;1.20;;;;;;;11.08;57.04;101293.13;5052011;28;20041;-75
2022/05/30 08:23:55;;;;;;;2.25;1.17;;;;;;;11.15;57.97;101293.00;5050177;28;20041;-75
2022/05/30 08:26:20;;;;;;;3.92;0.80;;;;;;;11.21;56.34;101292.88;5052621;28;20492;-75
2022/05/30 08:28:45;;;;;;;3.10;0.75;;;;;;;11.34;56.21;101289.13;5052440;28;20021;-75
2022/05/30 08:31:10;;;;;;;2.28;0.80;;;;;;;11.51;56.04;101282.66;5051536;28;20021;-75
2022/05/30 08:33:36;;;;;;;3.17;1.00;;;;;;;11.68;56.92;101293.56;5052412;28;20399;-75
2022/05/30 08:36:10;;;;;;;2.45;0.88;;;;;;;11.85;57.44;101287.09;5052477;28;20082;-75
2022/05/30 08:38:37;;;;;;;4.25;0.88;;;;;;;11.97;56.33;101285.94;5051968;28;20036;-75
2022/05/30 08:43:50;;;;;;;4.40;1.00;;;;;;;12.09;55.46;101282.22;5049329;28;20439;-75
2022/05/30 08:46:23;;;;;;;2.65;1.30;;;;;;;12.18;56.20;101283.75;5047391;28;20087;-75
2022/05/30 08:49:01;;;;;;;3.70;1.13;;;;;;;12.23;54.77;101294.91;5047932;28;20464;-75
2022/05/30 08:52:01;;;;;;;2.47;1.13;;;;;;;12.26;56.39;101293.09;5053383;28;20055;-75
2022/05/30 08:54:49;;;;;;;4.50;1.10;;;;;;;12.28;56.07;101293.91;5047101;28;20059;-75
2022/05/30 08:57:34;;;;;;;5.25;1.30;;;;;;;12.33;55.55;101291.19;5044453;28;20017;-75
2022/05/30 09:00:20;;;;;;;4.18;1.27;;;;;;;12.41;52.74;101297.03;5045713;28;20033;-75
2022/05/30 09:03:10;;;;;;;2.42;0.95;;;;;;;12.56;55.13;101298.41;5048850;28;20083;-75
2022/05/30 09:05:45;;;;;;;2.88;1.00;;;;;;;12.59;54.45;101303.53;5044715;28;20387;-75
2022/05/30 09:08:20;;;;;;;2.88;1.45;;;;;;;12.58;51.88;101307.03;5042558;28;20025;-75
2022/05/30 09:10:54;;;;;;;3.28;1.40;;;;;;;12.51;52.78;101302.88;5045033;28;20382;-75
2022/05/30 09:13:25;;;;;;;4.15;1.50;;;;;;;12.51;54.59;101302.88;5039129;28;20429;-75
2022/05/30 09:16:17;;;;;;;4.13;1.50;;;;;;;12.54;54.02;101305.41;5043712;28;20028;-75
2022/05/30 09:18:46;;;;;;;4.63;1.65;;;;;;;12.55;50.38;101307.13;5043567;28;20041;-75
2022/05/30 09:21:16;;;;;;;3.35;1.40;;;;;;;12.56;53.27;101303.63;5044607;28;20037;-75
2022/05/30 09:23:42;;;;;;;2.85;1.33;;;;;;;12.56;53.81;101308.84;5045499;28;20056;-75
2022/05/30 09:26:16;;;;;;;4.80;1.45;;;;;;;12.58;52.04;101309.66;5042073;28;20103;-76
2022/05/30 09:28:43;;;;;;;2.75;1.30;;;;;;;12.60;52.36;101310.47;5043148;28;20029;-75
2022/05/30 09:31:20;;;;;;;3.38;1.30;;;;;;;12.64;53.60;101303.41;5047201;28;20101;-75
2022/05/30 09:33:49;;;;;;;2.85;1.33;;;;;;;12.67;53.55;101302.44;5045355;28;20025;-75
2022/05/30 09:36:26;;;;;;;2.53;1.20;;;;;;;12.74;53.31;101302.25;5048546;28;20029;-75
2022/05/30 09:38:59;;;;;;;3.47;1.13;;;;;;;12.79;53.63;101307.38;5046518;28;21890;-76
2022/05/30 09:41:49;;;;;;;3.55;1.52;;;;;;;12.87;54.92;101305.38;5041596;28;20039;-75
2022/05/30 09:44:17;;;;;;;2.67;1.30;;;;;;;12.89;52.73;101300.97;5042777;28;20032;-75
2022/05/30 09:47:06;;;;;;;2.55;1.30;;;;;;;12.95;53.92;101307.78;5046818;28;20025;-75
2022/05/30 09:49:49;;;;;;;4.10;1.30;;;;;;;12.92;51.94;101305.25;5041055;28;20040;-75
2022/05/30 09:52:32;;;;;;;2.00;1.17;;;;;;;12.88;52.00;101308.88;5046129;28;20039;-76
2022/05/30 09:54:58;;;;;;;2.80;1.40;;;;;;;12.88;50.04;101308.88;5043128;28;20025;-75
2022/05/30 09:57:53;;;;;;;2.97;1.50;;;;;;;12.93;51.97;101316.56;5048334;28;20031;-75
2022/05/30 10:00:21;;;;;;;3.70;1.42;;;;;;;12.92;49.29;101309.63;5031682;28;20029;-75
2022/05/30 10:03:00;;;;;;;4.00;1.52;;;;;;;12.94;49.87;101307.84;5045879;28;20021;-75
2022/05/30 10:05:28;;;;;;;3.35;1.40;;;;;;;12.97;48.52;101310.38;5041595;28;20028;-76
2022/05/30 10:08:02;;;;;;;4.55;1.40;;;;;;;13.00;48.08;101307.63;5043540;28;20017;-75
2022/05/30 10:10:47;;;;;;;5.95;1.50;;;;;;;13.02;47.77;101311.06;5043877;28;20071;-75
2022/05/30 10:13:12;;;;;;;4.38;1.33;;;;;;;13.06;49.46;101312.69;5043630;28;20093;-76
2022/05/30 10:15:42;;;;;;;2.50;1.02;;;;;;;13.15;51.84;101307.19;5041874;28;20025;-75
2022/05/30 10:18:10;;;;;;;5.07;1.40;;;;;;;13.24;49.93;101310.44;5044601;28;20039;-75
2022/05/30 10:20:47;;;;;;;2.88;1.33;;;;;;;13.31;50.85;101306.78;5059146;28;20033;-76
2022/05/30 10:29:15;;;;;;;2.65;1.50;;;;;;;13.49;51.14;101300.16;5044379;28;20002;-76
2022/05/30 10:31:55;;;;;;;3.22;1.58;;;;;;;13.62;51.94;101305.88;5041362;28;20029;-75
2022/05/30 10:34:30;;;;;;;4.82;1.58;;;;;;;13.70;52.34;101309.09;5043385;28;20051;-75
2022/05/30 10:37:21;;;;;;;5.18;1.65;;;;;;;13.78;52.13;101306.22;5042758;28;20024;-75
2022/05/30 10:39:50;;;;;;;3.28;1.65;;;;;;;13.84;51.75;101305.16;5043769;28;20118;-75
2022/05/30 10:42:31;;;;;;;2.55;1.50;;;;;;;13.91;52.27;101317.16;5042955;28;20029;-76
2022/05/30 10:45:08;;;;;;;3.53;1.70;;;;;;;13.98;50.66;101307.34;5042176;28;20025;-75
2022/05/30 10:47:38;;;;;;;4.00;1.90;;;;;;;14.00;51.50;101311.66;5043431;28;20036;-75
2022/05/30 10:50:42;;;;;;;4.70;1.90;;;;;;;14.05;51.17;101309.72;5040530;28;20033;-75
2022/05/30 10:53:15;;;;;;;3.35;1.80;;;;;;;14.08;49.54;101316.63;5041343;28;20614;-75
2022/05/30 10:55:44;;;;;;;4.75;1.75;;;;;;;14.07;50.92;101318.38;5040512;28;20049;-75
2022/05/30 10:58:32;;;;;;;3.63;1.50;;;;;;;14.11;51.00;101314.75;5042467;28;20428;-75
2022/05/30 11:01:06;;;;;;;3.10;1.67;;;;;;;14.10;48.05;101322.63;5040527;28;20035;-75
2022/05/30 11:03:43;;;;;;;2.55;1.40;;;;;;;14.10;50.54;101312.16;5041347;28;20034;-75
2022/05/30 11:06:17;;;;;;;3.38;1.52;;;;;;;14.10;49.94;101318.28;5044066;28;20028;-75
2022/05/30 11:09:00;;;;;;;3.90;1.77;;;;;;;14.09;50.34;101313.09;5041174;28;20061;-75
2022/05/30 11:12:04;;;;;;;2.53;1.63;;;;;;;14.06;50.37;101316.66;5046131;28;20055;-75
2022/05/30 11:14:42;;;;;;;2.97;1.60;;;;;;;14.00;50.78;101311.66;5042754;28;20476;-75
2022/05/30 11:17:17;;;;;;;3.75;1.90;;;;;;;13.95;48.99;101314.38;5041430;28;20020;-75
2022/05/30 11:20:04;;;;;;;3.50;1.80;;;;;;;13.90;50.25;101310.22;5045453;28;20021;-75
2022/05/30 11:22:38;;;;;;;4.03;1.90;;;;;;;13.89;49.72;101313.72;5045296;28;20036;-75
2022/05/30 11:25:07;;;;;;;3.28;1.67;;;;;;;13.94;48.04;101307.44;5043048;28;20052;-76
2022/05/30 11:28:12;;;;;;;3.17;1.65;;;;;;;14.05;50.51;101304.47;5048866;28;20113;-75
2022/05/30 11:30:56;;;;;;;3.95;1.63;;;;;;;14.14;49.56;101305.09;5012034;28;20064;-75
2022/05/30 11:33:33;;;;;;;3.53;1.73;;;;;;;14.21;47.58;101298.72;5045696;28;20036;-76
2022/05/30 11:36:17;;;;;;;2.30;1.63;;;;;;;14.28;48.79;101300.25;5044756;28;20087;-75
2022/05/30 11:39:04;;;;;;;2.05;1.45;;;;;;;14.35;47.02;101299.13;5046563;28;20036;-76
2022/05/30 11:41:55;;;;;;;4.00;2.00;;;;;;;14.45;48.99;101298.81;5070222;28;20062;-75
2022/05/30 11:44:40;;;;;;;4.07;1.70;;;;;;;14.49;47.46;101297.81;5052754;28;20044;-75
2022/05/30 11:47:37;;;;;;;2.63;1.63;;;;;;;14.45;47.73;101296.19;5045253;28;20044;-75
2022/05/30 11:50:33;;;;;;;2.78;1.40;;;;;;;14.39;46.45;101298.09;5045582;28;20032;-75
2022/05/30 11:53:13;;;;;;;3.45;1.70;;;;;;;14.33;47.22;101300.94;5043866;28;20492;-76
2022/05/30 11:56:04;;;;;;;4.82;1.80;;;;;;;14.32;47.36;101301.88;5044236;28;20029;-75